Terminal Aerodrome Forecast
Issued by NWS Cleveland, OH

Home | Current Version | Previous Version | Text Only | Print | Product List | Glossary On
Versions: 1 2 3 4 5 6 7 8 9 10 11 12 13 14 15 16 17 18 19 20 21
621
FTUS41 KCLE 280543
TAFYNG
TAF
KYNG 280543Z 2806/2906 04006KT P6SM OVC050
      TEMPO 2806/2808 4SM -SHRA BR OVC025
     FM280800 02006KT 5SM -RA BR OVC025
      TEMPO 2809/2811 2SM -RA BR OVC012
     FM281100 36006KT 2SM -RA BR OVC006
     FM281700 36008KT 5SM BR OVC012
     FM282100 36008KT P6SM OVC020=

USA.gov is the U.S. government's official web portal to all federal, state and local government web resources and services.